Butte Falls, Oregon
Current Conditions -  °F | °C
As of 1:53 PM on Wednesday 26 Nov 2014 (Local Time) from KMFR Reporting Station
Overcast Overcast  
Wind Chill: 49°   Ceiling: 1000
Heat Index: 49°   Visibility: 7mi
Dew Point: 44°   Wind: 0mph
Humidity: 83%   Direction: NA
Pressure: 30.21"   Gusts: NA
Location:  42.54°N, 122.57°W
Report Text: KMFR 262153Z 00000KT 7SM OVC010 09/07 A3021 RMK AO2 SLP232 T00940067
Loading
Personal Weather Stations






























Interactive Weather Map New forecast layout! Learn more

10-Day Weather Forecast

Advertisements
Track Severe Weather on mobile